Time;durP1;ratioP1;P1;durP2;ratioP2;P2;SDS_P1;SDS_P2;PMS_P1;PMS_P2;Temp;Humidity;BMP_temperature;BMP_pressure;BME280_temperature;BME280_humidity;BME280_pressure;Samples;Min_cycle;Max_cycle;Signal;HPM_P1;HPM_P2
2022/07/30 00:00:54;;;;;;;7.05;1.80;;;;;;;20.48;76.44;100868.91;5050256;28;20132;-83
2022/07/30 00:03:20;;;;;;;5.57;2.30;;;;;;;20.45;75.83;100863.03;5050072;28;20029;-82
2022/07/30 00:05:45;;;;;;;4.60;1.73;;;;;;;20.62;77.07;100856.84;5050363;28;20414;-82
2022/07/30 00:08:11;;;;;;;3.78;1.60;;;;;;;20.76;76.95;100861.56;5050204;28;20402;-82
2022/07/30 00:10:36;;;;;;;3.83;1.70;;;;;;;20.80;76.34;100859.44;5050195;28;20501;-82
2022/07/30 00:13:02;;;;;;;4.28;1.48;;;;;;;20.70;75.57;100856.88;5050127;28;20025;-82
2022/07/30 00:15:27;;;;;;;2.50;1.60;;;;;;;20.59;76.32;100859.81;5050184;28;20383;-82
2022/07/30 00:17:53;;;;;;;4.38;2.13;;;;;;;20.50;76.60;100861.59;5049974;28;20363;-82
2022/07/30 00:20:18;;;;;;;3.67;1.88;;;;;;;20.63;76.27;100866.50;5049851;28;20108;-82
2022/07/30 00:22:44;;;;;;;6.65;1.50;;;;;;;20.71;77.15;100858.53;5049990;28;20064;-82
2022/07/30 00:25:09;;;;;;;2.58;1.60;;;;;;;20.77;76.84;100857.06;5049932;28;20086;-82
2022/07/30 00:27:34;;;;;;;3.75;1.55;;;;;;;20.74;77.47;100862.75;5048612;28;20025;-82
2022/07/30 00:30:02;;;;;;;5.93;1.85;;;;;;;20.76;77.85;100856.25;5049789;28;20453;-82
2022/07/30 00:32:27;;;;;;;4.30;1.65;;;;;;;20.59;78.88;100857.16;5049759;28;20029;-81
2022/07/30 00:34:53;;;;;;;4.20;1.85;;;;;;;20.67;78.64;100857.19;5049793;28;20386;-82
2022/07/30 00:37:18;;;;;;;5.65;1.98;;;;;;;20.67;79.52;100856.34;5049621;28;20108;-82
2022/07/30 00:39:43;;;;;;;2.58;1.80;;;;;;;20.62;79.65;100864.00;5049538;28;20084;-82
2022/07/30 00:42:09;;;;;;;5.03;2.42;;;;;;;20.38;80.85;100854.84;5049888;28;20028;-82
2022/07/30 00:44:34;;;;;;;4.75;2.60;;;;;;;20.20;82.16;100854.88;5049669;28;20557;-82
2022/07/30 00:46:59;;;;;;;5.30;2.47;;;;;;;20.18;82.22;100852.38;5048397;28;20021;-82
2022/07/30 00:49:25;;;;;;;4.85;2.15;;;;;;;20.37;81.16;100853.16;5049621;28;20025;-82
2022/07/30 00:51:51;;;;;;;6.78;2.17;;;;;;;20.38;81.42;100854.84;5048181;28;20025;-82
2022/07/30 00:54:17;;;;;;;8.48;2.67;;;;;;;20.42;81.70;100845.53;5048265;28;20025;-82
2022/07/30 00:56:43;;;;;;;3.53;2.10;;;;;;;20.46;80.89;100854.03;5048358;28;20024;-82
2022/07/30 00:59:09;;;;;;;7.93;2.50;;;;;;;20.07;82.72;100849.13;5049151;28;20029;-82
2022/07/30 01:01:34;;;;;;;6.38;2.92;;;;;;;20.24;82.47;100855.41;5049505;28;20029;-81
2022/07/30 01:04:00;;;;;;;4.60;2.13;;;;;;;20.30;82.24;100854.78;5049247;28;20093;-81
2022/07/30 01:06:26;;;;;;;5.40;1.90;;;;;;;20.40;82.20;100855.53;5049380;28;20029;-81
2022/07/30 01:08:51;;;;;;;4.10;2.03;;;;;;;20.29;81.92;100847.78;5049344;28;20044;-81
2022/07/30 01:11:17;;;;;;;6.45;2.60;;;;;;;20.04;83.63;100850.25;5049317;28;20024;-82
2022/07/30 01:13:45;;;;;;;3.78;1.85;;;;;;;20.36;82.80;100860.34;5049211;28;20029;-83
2022/07/30 01:16:10;;;;;;;4.65;2.00;;;;;;;20.36;83.06;100855.00;5048731;28;20104;-83
2022/07/30 01:21:37;;;;;;;5.82;2.30;;;;;;;20.35;83.38;100849.81;5049158;28;20127;-82
2022/07/30 01:24:36;;;;;;;5.80;2.45;;;;;;;20.40;83.86;100834.19;5049123;28;20034;-82
2022/07/30 01:27:03;;;;;;;5.90;2.40;;;;;;;20.38;83.24;100834.34;5051364;28;20033;-82
2022/07/30 01:29:30;;;;;;;5.03;1.75;;;;;;;20.36;83.25;100843.50;5048825;28;20056;-82
2022/07/30 01:31:58;;;;;;;6.63;2.90;;;;;;;20.23;84.83;100843.91;5048401;28;20033;-82
2022/07/30 01:34:28;;;;;;;5.03;2.08;;;;;;;20.26;85.18;100840.09;5048843;28;20481;-82
2022/07/30 01:36:56;;;;;;;5.28;2.10;;;;;;;20.25;85.01;100846.44;5049148;28;20040;-82
2022/07/30 01:39:22;;;;;;;4.55;2.15;;;;;;;20.20;85.35;100846.88;5047485;28;20028;-82
2022/07/30 01:41:51;;;;;;;3.47;1.90;;;;;;;20.12;86.68;100842.34;5048757;28;20474;-82
2022/07/30 01:44:17;;;;;;;6.97;2.25;;;;;;;20.07;88.10;100833.97;5048822;28;20080;-82
2022/07/30 01:46:43;;;;;;;3.13;2.20;;;;;;;20.03;87.58;100831.78;5048850;28;20060;-82
2022/07/30 01:49:09;;;;;;;4.18;2.63;;;;;;;19.88;88.66;100829.66;5048758;28;20108;-82
2022/07/30 01:51:37;;;;;;;5.13;2.10;;;;;;;19.91;88.65;100833.84;5048915;28;20044;-82
2022/07/30 01:54:08;;;;;;;6.05;2.42;;;;;;;19.88;88.90;100834.97;5047385;28;20025;-82
2022/07/30 01:56:36;;;;;;;3.35;2.28;;;;;;;19.87;90.06;100836.00;5047388;28;20022;-82
2022/07/30 01:59:02;;;;;;;3.78;2.35;;;;;;;19.77;90.06;100837.91;5048381;28;20021;-82
2022/07/30 02:01:27;;;;;;;4.72;2.28;;;;;;;19.78;90.12;100839.56;5048615;28;20022;-82
2022/07/30 02:03:53;;;;;;;2.53;1.98;;;;;;;19.74;90.28;100831.03;5048587;28;20114;-82
2022/07/30 02:06:31;;;;;;;6.60;2.53;;;;;;;19.61;92.07;100830.59;5048492;28;20028;-82
2022/07/30 02:09:00;;;;;;;6.55;2.53;;;;;;;19.49;91.84;100835.31;5048455;28;20029;-82
2022/07/30 02:14:18;;;;;;;4.55;2.28;;;;;;;19.64;92.48;100832.91;5048802;28;20029;-82
2022/07/30 02:16:49;;;;;;;3.80;2.35;;;;;;;19.59;92.71;100833.38;5048631;28;20025;-82
2022/07/30 02:19:17;;;;;;;3.00;2.03;;;;;;;19.56;92.84;100836.34;5048207;28;20101;-82
2022/07/30 02:21:56;;;;;;;3.30;2.20;;;;;;;19.62;92.94;100825.06;5043715;27;20505;-82
2022/07/30 02:24:27;;;;;;;6.90;2.60;;;;;;;19.51;93.15;100829.81;5047913;28;20448;-83
2022/07/30 02:26:59;;;;;;;3.63;2.20;;;;;;;19.51;93.43;100817.34;5048337;28;20056;-81
2022/07/30 02:29:24;;;;;;;4.32;2.47;;;;;;;19.48;93.08;100820.28;5048186;28;20529;-81
2022/07/30 02:31:53;;;;;;;6.50;2.58;;;;;;;19.34;93.73;100819.00;5048255;28;20021;-82
2022/07/30 02:34:21;;;;;;;4.22;2.50;;;;;;;19.35;94.53;100818.03;5047999;28;20021;-82
2022/07/30 02:36:47;;;;;;;7.00;2.53;;;;;;;19.27;94.92;100820.56;5048157;28;20382;-82
2022/07/30 02:39:15;;;;;;;4.25;2.40;;;;;;;19.14;95.64;100825.44;5048044;28;20089;-82
2022/07/30 02:41:43;;;;;;;4.13;2.25;;;;;;;19.20;95.51;100824.84;5048210;28;20082;-82
2022/07/30 02:44:10;;;;;;;4.35;2.83;;;;;;;19.13;96.33;100829.09;5048720;28;20021;-83
2022/07/30 02:46:38;;;;;;;5.50;3.03;;;;;;;19.09;96.75;100827.72;5050158;28;20479;-82
2022/07/30 02:49:05;;;;;;;3.40;2.75;;;;;;;19.03;97.00;100835.28;5051319;28;20036;-82
2022/07/30 02:51:33;;;;;;;5.63;2.92;;;;;;;19.00;97.39;100840.94;5051435;28;20021;-82
2022/07/30 02:54:00;;;;;;;5.30;2.63;;;;;;;19.00;97.56;100840.94;5051504;28;20021;-82
2022/07/30 02:56:27;;;;;;;5.47;3.28;;;;;;;18.98;97.29;100842.91;5051476;28;20028;-82
2022/07/30 02:58:54;;;;;;;5.63;2.53;;;;;;;18.99;96.83;100843.72;5051032;28;20382;-83
2022/07/30 03:01:22;;;;;;;6.63;2.78;;;;;;;19.03;97.10;100835.28;5051404;28;20424;-82
2022/07/30 03:03:49;;;;;;;5.25;3.42;;;;;;;18.99;97.26;100841.91;5051313;28;20029;-82
2022/07/30 03:06:16;;;;;;;4.75;2.80;;;;;;;18.96;96.97;100838.72;5051313;28;20537;-82
2022/07/30 03:08:44;;;;;;;5.97;2.90;;;;;;;18.94;97.57;100830.06;5051260;28;20048;-82
2022/07/30 03:11:10;;;;;;;5.15;3.05;;;;;;;18.92;97.24;100827.53;5051126;28;20025;-82
2022/07/30 03:13:36;;;;;;;3.80;2.92;;;;;;;18.91;97.43;100828.50;5051071;28;20021;-82
2022/07/30 03:16:05;;;;;;;3.03;2.70;;;;;;;18.98;97.16;100826.09;5051050;28;20386;-82
2022/07/30 03:18:34;;;;;;;5.55;3.38;;;;;;;18.80;98.89;100815.44;5051087;28;20025;-83
2022/07/30 03:21:02;;;;;;;4.50;2.88;;;;;;;18.91;98.82;100817.88;5050973;28;20033;-82
2022/07/30 03:23:33;;;;;;;8.20;2.67;;;;;;;18.94;99.10;100811.44;5050936;28;20017;-81
2022/07/30 03:26:01;;;;;;;4.00;2.55;;;;;;;18.97;99.25;100809.28;5049613;28;20465;-82
2022/07/30 03:28:30;;;;;;;5.53;3.05;;;;;;;19.01;99.65;100813.31;5051002;28;20029;-83
2022/07/30 03:30:56;;;;;;;5.57;3.20;;;;;;;18.93;99.33;100818.56;5050845;28;20021;-81
2022/07/30 03:33:22;;;;;;;6.47;2.78;;;;;;;18.98;99.81;100816.28;5050828;28;20032;-82
2022/07/30 03:35:48;;;;;;;4.97;3.05;;;;;;;18.97;99.75;100819.09;5050704;28;20027;-82
2022/07/30 03:38:15;;;;;;;3.70;2.83;;;;;;;19.03;99.60;100823.81;5051088;28;20034;-81
2022/07/30 03:40:42;;;;;;;3.15;2.50;;;;;;;19.06;98.82;100826.19;5050623;28;20029;-81
2022/07/30 03:43:11;;;;;;;3.97;2.53;;;;;;;19.11;98.57;100820.41;5050593;28;20876;-81
2022/07/30 03:45:40;;;;;;;6.13;3.22;;;;;;;19.03;98.86;100811.34;5050529;28;20410;-81
2022/07/30 03:48:07;;;;;;;5.43;2.42;;;;;;;19.10;97.98;100808.94;5050743;28;20020;-82
2022/07/30 03:50:35;;;;;;;4.53;2.70;;;;;;;19.06;98.53;100806.75;5050472;28;20137;-81
2022/07/30 03:53:03;;;;;;;4.53;2.33;;;;;;;19.02;98.56;100806.19;5050896;28;20025;-81
2022/07/30 03:55:29;;;;;;;3.22;2.08;;;;;;;18.95;99.41;100808.59;5050029;28;20077;-81
2022/07/30 03:57:55;;;;;;;2.28;1.98;;;;;;;18.98;98.59;100805.66;5050404;28;20043;-81
2022/07/30 04:00:21;;;;;;;5.43;2.92;;;;;;;18.94;98.26;100809.59;5050157;28;20477;-81
2022/07/30 04:02:48;;;;;;;3.50;2.65;;;;;;;18.89;98.94;100813.69;5050535;28;20029;-81
2022/07/30 04:05:15;;;;;;;3.30;2.30;;;;;;;18.83;98.70;100812.44;5050523;28;20032;-82
2022/07/30 04:07:40;;;;;;;3.70;2.70;;;;;;;18.81;100.00;100815.25;5050200;28;20071;-82
2022/07/30 04:10:06;;;;;;;6.90;3.13;;;;;;;18.92;99.10;100816.06;5048902;28;20537;-82
2022/07/30 04:12:31;;;;;;;4.68;2.63;;;;;;;18.90;99.99;100839.28;5050199;28;20036;-82
2022/07/30 04:14:57;;;;;;;3.53;3.00;;;;;;;18.91;100.00;100838.31;5050015;28;20025;-82
2022/07/30 04:17:50;;;;;;;4.45;3.40;;;;;;;18.97;100.00;100835.91;5050218;28;20060;-82
2022/07/30 04:20:22;;;;;;;4.60;3.00;;;;;;;18.99;100.00;100841.91;5050999;28;20494;-82
2022/07/30 04:22:48;;;;;;;7.00;3.33;;;;;;;18.96;100.00;100844.88;5050266;28;20108;-82
2022/07/30 04:25:15;;;;;;;4.05;3.28;;;;;;;18.98;100.00;100840.25;5049946;28;20498;-82
2022/07/30 04:27:41;;;;;;;6.00;2.90;;;;;;;18.97;100.00;100838.56;5049967;28;20541;-82
2022/07/30 04:30:07;;;;;;;6.53;3.08;;;;;;;18.93;100.00;100834.50;5049759;28;20025;-82
2022/07/30 04:32:34;;;;;;;6.78;3.15;;;;;;;19.03;100.00;100829.13;5048390;28;20087;-82
2022/07/30 04:34:59;;;;;;;4.15;3.10;;;;;;;18.90;100.00;100834.84;5049920;28;20074;-82
2022/07/30 04:37:26;;;;;;;4.63;3.42;;;;;;;18.78;100.00;100831.50;5049691;28;20424;-82
2022/07/30 04:39:56;;;;;;;4.63;3.20;;;;;;;18.89;100.00;100821.66;5031724;28;20412;-82
2022/07/30 04:42:23;;;;;;;4.72;3.03;;;;;;;18.93;100.00;100823.03;5049784;28;20074;-82
2022/07/30 04:44:48;;;;;;;5.00;3.83;;;;;;;18.85;100.00;100820.28;5049687;28;20029;-82
2022/07/30 04:47:14;;;;;;;5.95;3.72;;;;;;;18.90;100.00;100829.50;5049735;28;20443;-82
2022/07/30 04:49:41;;;;;;;4.47;3.10;;;;;;;19.00;100.00;100821.47;5049626;28;20069;-82
2022/07/30 04:52:08;;;;;;;5.00;3.60;;;;;;;18.97;100.00;100819.94;5049562;28;20040;-82
2022/07/30 04:54:41;;;;;;;4.47;3.00;;;;;;;19.11;100.00;100815.91;5049266;28;20105;-82
2022/07/30 04:57:09;;;;;;;4.68;3.10;;;;;;;19.13;100.00;100821.94;5049565;28;20021;-82
2022/07/30 04:59:36;;;;;;;7.07;3.58;;;;;;;19.15;100.00;100816.47;5049264;28;20025;-82
2022/07/30 05:02:03;;;;;;;4.75;3.60;;;;;;;19.13;100.00;100818.44;5049600;28;20057;-82
2022/07/30 05:04:31;;;;;;;4.20;2.92;;;;;;;19.26;100.00;100813.59;5049344;28;20471;-82
2022/07/30 05:06:58;;;;;;;6.35;3.28;;;;;;;19.27;100.00;100814.44;5048469;28;20056;-82
2022/07/30 05:09:24;;;;;;;5.30;3.20;;;;;;;19.30;100.00;100822.94;5049398;28;20025;-82
2022/07/30 05:11:51;;;;;;;5.35;2.60;;;;;;;19.31;100.00;100823.78;5049358;28;20039;-82
2022/07/30 05:14:16;;;;;;;6.88;3.67;;;;;;;19.31;100.00;100832.63;5049252;28;20028;-82
2022/07/30 05:16:42;;;;;;;4.13;3.30;;;;;;;19.26;100.00;100834.91;5049273;28;20025;-82
2022/07/30 05:19:07;;;;;;;4.82;3.40;;;;;;;19.20;100.00;100838.16;5048962;28;20025;-82
2022/07/30 05:21:32;;;;;;;4.72;4.32;;;;;;;19.39;100.00;100823.84;5049135;28;20081;-82
2022/07/30 05:23:58;;;;;;;6.03;3.67;;;;;;;19.54;100.00;100822.34;5049137;28;20101;-82
2022/07/30 05:26:23;;;;;;;6.15;4.38;;;;;;;19.74;100.00;100817.72;5049377;28;20078;-82
2022/07/30 05:28:48;;;;;;;15.55;5.72;;;;;;;19.73;100.00;100829.38;5049047;28;20474;-83
2022/07/30 05:31:14;;;;;;;4.00;3.58;;;;;;;19.92;99.38;100832.84;5049043;28;20029;-81
2022/07/30 05:33:39;;;;;;;5.97;3.00;;;;;;;19.95;98.58;100835.22;5047531;28;20025;-83
2022/07/30 05:36:05;;;;;;;3.80;3.45;;;;;;;19.96;98.07;100840.41;5048873;28;20021;-83
2022/07/30 05:38:30;;;;;;;8.02;4.13;;;;;;;19.93;98.72;100831.88;5048967;28;20025;-83
2022/07/30 05:40:55;;;;;;;5.97;3.45;;;;;;;19.98;98.08;100838.41;5048787;28;20063;-81
2022/07/30 05:43:21;;;;;;;4.95;3.92;;;;;;;19.98;99.55;100845.56;5048745;28;20029;-81
2022/07/30 05:45:46;;;;;;;3.72;3.08;;;;;;;20.18;98.03;100840.88;5048691;28;20036;-82
2022/07/30 05:48:11;;;;;;;6.28;3.88;;;;;;;20.13;97.69;100827.19;5048822;28;20025;-82
2022/07/30 05:50:37;;;;;;;4.68;3.92;;;;;;;20.37;96.44;100819.31;5048830;28;20060;-82
2022/07/30 05:53:02;;;;;;;6.60;4.18;;;;;;;20.36;96.73;100819.50;5048669;28;20025;-82
2022/07/30 05:55:28;;;;;;;8.73;4.30;;;;;;;20.44;96.59;100808.88;5048772;28;20081;-82
2022/07/30 05:57:53;;;;;;;7.00;3.95;;;;;;;20.77;95.93;100817.03;5048857;28;20025;-82
2022/07/30 06:00:18;;;;;;;7.97;3.65;;;;;;;20.95;94.29;100812.47;5048539;28;20558;-83
2022/07/30 06:02:44;;;;;;;4.97;3.63;;;;;;;20.91;94.07;100811.13;5049047;28;20793;-82
2022/07/30 06:05:09;;;;;;;8.43;4.57;;;;;;;21.12;92.43;100796.47;5048575;28;20025;-83
2022/07/30 06:07:34;;;;;;;6.57;3.90;;;;;;;21.15;91.58;100802.31;5048417;28;20025;-82
2022/07/30 06:10:00;;;;;;;8.45;3.50;;;;;;;21.31;91.73;100800.69;5048483;28;20387;-82
2022/07/30 06:12:27;;;;;;;9.02;4.03;;;;;;;21.40;91.46;100805.03;5048669;28;20017;-82
2022/07/30 06:14:52;;;;;;;6.00;3.70;;;;;;;21.50;90.87;100800.38;5047152;28;20032;-83
2022/07/30 06:17:17;;;;;;;7.93;4.22;;;;;;;21.19;91.23;100803.66;5048461;28;20017;-83
2022/07/30 06:19:43;;;;;;;7.35;3.80;;;;;;;21.45;91.15;100807.25;5050826;28;20386;-82
2022/07/30 06:22:08;;;;;;;10.15;4.18;;;;;;;21.57;88.44;100792.56;5051934;28;20029;-82
2022/07/30 06:24:33;;;;;;;4.43;3.90;;;;;;;21.54;88.92;100791.06;5051962;28;20036;-83
2022/07/30 06:26:59;;;;;;;5.35;3.03;;;;;;;21.53;88.59;100792.03;5051968;28;20017;-83
2022/07/30 06:29:25;;;;;;;4.50;3.17;;;;;;;21.60;87.49;100794.88;5051786;28;20390;-83
2022/07/30 06:31:50;;;;;;;4.43;2.80;;;;;;;21.61;87.99;100791.22;5051736;28;20382;-82
2022/07/30 06:34:15;;;;;;;4.03;3.17;;;;;;;21.61;87.25;100798.41;5051616;28;20037;-82
2022/07/30 06:36:41;;;;;;;6.63;3.13;;;;;;;21.54;87.54;100796.41;5050388;28;20082;-83
2022/07/30 06:39:06;;;;;;;7.15;3.42;;;;;;;21.48;86.37;100806.91;5050240;28;20025;-83
2022/07/30 06:41:31;;;;;;;8.85;3.83;;;;;;;21.42;87.02;100812.88;5050472;28;20116;-83
2022/07/30 06:43:57;;;;;;;6.18;3.20;;;;;;;21.53;86.42;100820.63;5051638;28;20095;-83
2022/07/30 06:46:22;;;;;;;4.45;2.47;;;;;;;21.52;85.95;100824.28;5051400;28;20428;-83
2022/07/30 06:48:47;;;;;;;5.68;3.35;;;;;;;21.54;85.54;100827.59;5051416;28;20072;-83
2022/07/30 06:51:12;;;;;;;5.75;2.35;;;;;;;21.54;86.13;100836.47;5051248;28;20033;-83
2022/07/30 06:53:38;;;;;;;4.65;2.70;;;;;;;21.46;86.79;100835.63;5051515;28;20021;-82
2022/07/30 06:56:03;;;;;;;4.88;2.65;;;;;;;21.49;87.18;100837.97;5051367;28;20029;-82
2022/07/30 06:58:29;;;;;;;3.90;2.38;;;;;;;21.62;87.72;100848.97;5051356;28;20021;-82
2022/07/30 07:00:54;;;;;;;4.07;2.78;;;;;;;21.47;87.95;100858.69;5051337;28;20037;-82
2022/07/30 07:03:20;;;;;;;4.20;2.15;;;;;;;21.76;86.54;100861.72;5051312;28;20402;-81
2022/07/30 07:05:45;;;;;;;4.85;2.70;;;;;;;21.96;85.82;100858.72;5051359;28;20084;-82
2022/07/30 07:08:11;;;;;;;6.25;2.70;;;;;;;22.04;83.58;100865.88;5051247;28;20463;-82
2022/07/30 07:10:36;;;;;;;3.25;2.60;;;;;;;22.28;81.89;100868.56;5050994;28;20377;-82
2022/07/30 07:13:01;;;;;;;6.70;2.90;;;;;;;22.22;81.44;100857.69;5051219;28;20378;-82
2022/07/30 07:15:27;;;;;;;5.82;2.10;;;;;;;22.10;81.73;100860.69;5051397;28;20017;-82
2022/07/30 07:17:52;;;;;;;3.88;2.45;;;;;;;22.27;80.53;100866.88;5049796;28;20132;-82
2022/07/30 07:20:18;;;;;;;2.75;2.17;;;;;;;22.23;79.47;100862.00;5050813;28;20032;-82
2022/07/30 07:22:43;;;;;;;3.42;2.33;;;;;;;22.46;79.90;100854.97;5050966;28;20025;-82
2022/07/30 07:25:09;;;;;;;3.25;2.33;;;;;;;22.35;80.18;100855.34;5051013;28;20154;-82
2022/07/30 07:27:36;;;;;;;5.78;3.03;;;;;;;22.43;80.04;100849.97;5051026;28;20018;-82
2022/07/30 07:30:01;;;;;;;5.53;2.63;;;;;;;22.13;80.80;100852.31;5050066;28;20470;-82
2022/07/30 07:32:27;;;;;;;3.95;2.67;;;;;;;22.12;79.92;100848.00;5050781;28;20044;-82
2022/07/30 07:34:52;;;;;;;3.05;2.60;;;;;;;22.07;82.09;100839.63;5050898;28;20029;-82
2022/07/30 07:37:17;;;;;;;9.27;2.65;;;;;;;22.29;79.71;100839.97;5050792;28;20033;-82
2022/07/30 07:39:42;;;;;;;3.38;2.25;;;;;;;22.32;81.37;100843.13;5050704;28;20036;-82
2022/07/30 07:42:08;;;;;;;5.63;2.63;;;;;;;22.41;80.28;100846.63;5050534;28;20025;-82
2022/07/30 07:44:33;;;;;;;4.93;2.67;;;;;;;22.23;81.28;100852.16;5050862;28;20021;-82
2022/07/30 07:46:58;;;;;;;5.32;2.55;;;;;;;22.26;81.75;100853.69;5050792;28;20029;-82
2022/07/30 07:49:24;;;;;;;4.93;2.58;;;;;;;22.34;80.99;100854.50;5049385;28;20025;-82
2022/07/30 07:51:49;;;;;;;5.85;2.92;;;;;;;22.03;82.88;100851.66;5050478;28;20032;-82
2022/07/30 07:54:15;;;;;;;4.53;2.47;;;;;;;22.25;82.55;100847.50;5049109;28;20021;-83
2022/07/30 07:56:41;;;;;;;3.85;2.15;;;;;;;22.66;81.91;100849.25;5050496;28;20028;-83
2022/07/30 07:59:06;;;;;;;7.63;2.80;;;;;;;22.25;83.13;100852.84;5050469;28;20027;-82
2022/07/30 08:01:31;;;;;;;4.00;2.40;;;;;;;22.50;81.87;100856.31;5050333;28;20493;-83
2022/07/30 08:03:57;;;;;;;5.00;3.03;;;;;;;22.69;81.33;100855.09;5050411;28;20364;-83
2022/07/30 08:06:22;;;;;;;3.13;2.83;;;;;;;22.68;81.45;100849.91;5050216;28;20044;-83
2022/07/30 08:08:48;;;;;;;4.28;2.88;;;;;;;22.76;80.50;100850.69;5050179;28;20021;-83
2022/07/30 08:11:13;;;;;;;5.07;3.00;;;;;;;22.61;82.45;100857.78;5050300;28;20120;-83
2022/07/30 08:13:38;;;;;;;14.88;3.15;;;;;;;22.58;82.37;100853.59;5050097;28;20033;-83
2022/07/30 08:16:04;;;;;;;5.55;2.50;;;;;;;22.73;83.25;100850.22;5050297;27;20021;-83
2022/07/30 08:18:30;;;;;;;6.32;2.90;;;;;;;23.05;82.19;100845.78;5050049;28;20025;-83
2022/07/30 08:20:55;;;;;;;3.35;1.50;;;;;;;23.41;81.76;100848.72;5049923;28;20478;-83
2022/07/30 08:23:21;;;;;;;3.55;2.40;;;;;;;23.17;80.86;100847.84;5048939;28;20025;-83
2022/07/30 08:25:47;;;;;;;3.58;2.00;;;;;;;23.41;80.53;100848.72;5050034;28;20036;-83
2022/07/30 08:28:13;;;;;;;8.18;2.15;;;;;;;23.25;80.32;100838.94;5050058;28;20382;-83
2022/07/30 08:30:38;;;;;;;2.22;1.85;;;;;;;23.35;80.99;100839.53;5049830;28;20021;-83
2022/07/30 08:33:04;;;;;;;4.15;1.60;;;;;;;23.99;79.57;100837.56;5049829;28;20037;-83
2022/07/30 08:35:29;;;;;;;1.50;1.17;;;;;;;24.77;75.60;100835.44;5050028;28;20036;-83
2022/07/30 08:37:54;;;;;;;4.63;1.38;;;;;;;25.22;72.66;100831.66;5049850;28;20029;-83
2022/07/30 08:40:20;;;;;;;1.98;0.88;;;;;;;25.70;71.17;100833.78;5049637;28;20363;-82
2022/07/30 08:42:46;;;;;;;1.73;0.90;;;;;;;25.60;71.87;100844.03;5048725;28;20032;-82
2022/07/30 08:45:12;;;;;;;2.30;1.30;;;;;;;25.41;71.53;100835.56;5049787;28;20382;-82
2022/07/30 08:47:40;;;;;;;3.28;1.02;;;;;;;26.33;68.63;100852.72;5049713;28;20032;-82
2022/07/30 08:50:07;;;;;;;2.20;1.15;;;;;;;25.42;70.82;100852.56;5049610;28;20119;-83
2022/07/30 08:52:35;;;;;;;2.72;1.23;;;;;;;25.64;69.83;100843.44;5049650;28;20107;-82
2022/07/30 08:55:01;;;;;;;2.20;1.13;;;;;;;25.78;69.34;100846.28;5049390;28;20112;-82
2022/07/30 08:57:31;;;;;;;4.20;1.20;;;;;;;25.73;70.77;100845.00;5049458;28;20107;-82
2022/07/30 09:00:00;;;;;;;3.92;1.50;;;;;;;25.06;71.88;100853.34;5049487;28;20085;-82
2022/07/30 09:02:26;;;;;;;1.92;1.25;;;;;;;25.26;72.29;100851.75;5049420;28;20025;-82
2022/07/30 09:04:51;;;;;;;2.50;1.67;;;;;;;25.58;70.24;100846.91;5049543;28;20025;-82
2022/07/30 09:07:17;;;;;;;1.85;0.82;;;;;;;25.87;69.45;100842.41;5049449;28;20028;-82
2022/07/30 09:09:43;;;;;;;1.45;1.00;;;;;;;26.21;69.00;100847.06;5049192;28;20086;-82
2022/07/30 09:12:30;;;;;;;1.80;0.98;;;;;;;26.81;65.05;100850.09;5049326;28;20066;-83
2022/07/30 09:15:19;;;;;;;1.38;0.88;;;;;;;27.39;64.31;100849.72;5049193;28;20021;-82
2022/07/30 09:17:59;;;;;;;1.45;0.80;;;;;;;28.53;59.40;100849.72;5049144;28;20025;-82
2022/07/30 09:20:27;;;;;;;1.55;0.55;;;;;;;29.22;56.50;100849.03;5048924;28;20033;-82
2022/07/30 09:22:55;;;;;;;2.25;0.93;;;;;;;27.91;58.49;100847.31;5049187;28;20029;-82
2022/07/30 09:25:38;;;;;;;1.30;0.40;;;;;;;26.50;63.61;100845.16;5047732;28;20537;-82
2022/07/30 09:28:06;;;;;;;0.63;0.40;;;;;;;27.33;62.21;100844.28;5049323;28;20025;-83
2022/07/30 09:30:49;;;;;;;1.08;0.60;;;;;;;28.04;60.21;100843.75;5049284;28;20020;-83
2022/07/30 09:33:30;;;;;;;1.90;0.50;;;;;;;26.42;64.71;100848.84;5048864;28;20112;-82
2022/07/30 09:35:55;;;;;;;4.07;0.50;;;;;;;27.50;61.41;100857.19;5048961;28;20370;-82
2022/07/30 09:38:22;;;;;;;1.45;0.50;;;;;;;27.12;62.55;100854.16;5049004;28;20021;-82
2022/07/30 09:40:54;;;;;;;0.90;0.47;;;;;;;27.61;60.70;100858.47;5048724;28;20025;-82
2022/07/30 09:43:20;;;;;;;1.55;0.52;;;;;;;26.51;63.41;100855.72;5048974;28;20025;-82
2022/07/30 09:45:56;;;;;;;0.77;0.50;;;;;;;26.41;65.42;100857.13;5048840;28;20525;-82
2022/07/30 09:48:26;;;;;;;4.85;0.65;;;;;;;26.63;65.28;100855.22;5048865;28;20032;-83
2022/07/30 09:50:52;;;;;;;2.50;0.57;;;;;;;26.25;64.66;100856.41;5048636;28;20021;-82
2022/07/30 09:53:21;;;;;;;1.02;0.60;;;;;;;26.11;66.00;100851.94;5048206;28;20025;-82
2022/07/30 09:55:46;;;;;;;2.22;0.75;;;;;;;26.08;66.95;100857.72;5047388;28;20112;-83
2022/07/30 09:58:12;;;;;;;2.08;0.47;;;;;;;26.11;67.34;100868.94;5048732;28;20573;-83
2022/07/30 10:00:38;;;;;;;1.27;0.50;;;;;;;26.12;67.22;100865.19;5048520;28;20037;-83
2022/07/30 10:03:20;;;;;;;0.52;0.47;;;;;;;26.36;66.48;100863.06;5048527;28;20031;-83
2022/07/30 10:05:54;;;;;;;0.50;0.32;;;;;;;26.20;67.38;100860.69;5048630;28;20025;-83
2022/07/30 10:08:36;;;;;;;0.88;0.60;;;;;;;26.59;66.55;100859.34;5048545;28;20112;-83
2022/07/30 10:11:02;;;;;;;2.80;0.40;;;;;;;26.75;66.12;100858.16;5048380;28;20037;-83
2022/07/30 10:13:27;;;;;;;0.75;0.30;;;;;;;26.03;69.18;100858.31;5048431;28;20113;-83
2022/07/30 10:15:53;;;;;;;0.47;0.38;;;;;;;26.60;67.24;100855.59;5048459;28;20052;-83
2022/07/30 10:18:19;;;;;;;2.38;0.70;;;;;;;26.86;66.61;100854.91;5048470;28;20069;-83
2022/07/30 10:20:44;;;;;;;1.00;0.40;;;;;;;27.35;64.02;100853.88;5048129;28;20078;-83
2022/07/30 10:23:10;;;;;;;2.50;0.80;;;;;;;27.45;64.82;100853.47;5048556;28;20025;-83
2022/07/30 10:25:36;;;;;;;0.60;0.43;;;;;;;27.64;62.85;100854.50;5048286;28;20060;-83
2022/07/30 10:28:02;;;;;;;0.63;0.55;;;;;;;27.12;63.79;100854.16;5048433;28;20085;-83
2022/07/30 10:30:29;;;;;;;0.73;0.40;;;;;;;27.23;63.62;100861.69;5048295;28;20033;-83
2022/07/30 10:32:55;;;;;;;1.30;0.35;;;;;;;26.97;64.06;100862.41;5048267;28;20513;-83
2022/07/30 10:35:21;;;;;;;1.25;0.75;;;;;;;26.59;67.05;100862.03;5048200;28;20045;-83
2022/07/30 10:37:49;;;;;;;1.65;0.40;;;;;;;26.78;65.71;100860.44;5048104;28;20057;-83
2022/07/30 10:40:24;;;;;;;0.75;0.40;;;;;;;26.55;67.16;100866.13;5047996;28;20025;-83
2022/07/30 10:43:05;;;;;;;1.38;0.45;;;;;;;27.03;66.34;100860.75;5046753;28;20030;-83
2022/07/30 10:45:48;;;;;;;1.98;0.50;;;;;;;27.29;64.26;100860.03;5048314;28;20021;-83
2022/07/30 10:48:15;;;;;;;1.45;0.60;;;;;;;26.97;65.81;100853.50;5048072;28;20043;-83
2022/07/30 10:50:53;;;;;;;1.98;0.40;;;;;;;27.09;64.29;100862.66;5048016;28;20025;-83
2022/07/30 10:53:39;;;;;;;1.42;0.60;;;;;;;26.85;65.28;100867.53;5046883;28;20044;-83
2022/07/30 10:56:17;;;;;;;1.85;0.60;;;;;;;26.85;65.63;100859.44;5048081;28;20074;-83
2022/07/30 10:59:01;;;;;;;1.15;0.70;;;;;;;26.64;67.70;100867.63;5048177;28;20482;-83
2022/07/30 11:01:45;;;;;;;1.35;0.70;;;;;;;27.18;66.36;100861.44;5046509;28;20435;-83
2022/07/30 11:04:18;;;;;;;1.20;0.55;;;;;;;27.06;67.26;100858.50;5048127;28;20033;-83
2022/07/30 11:06:43;;;;;;;0.80;0.60;;;;;;;27.03;67.77;100866.16;5050803;28;20439;-83
2022/07/30 11:09:35;;;;;;;3.00;0.50;;;;;;;28.39;62.63;100857.81;5051219;28;20082;-83
2022/07/30 11:12:01;;;;;;;1.98;0.60;;;;;;;28.29;63.53;100860.94;5051514;28;20027;-83
2022/07/30 11:14:45;;;;;;;1.25;0.70;;;;;;;29.81;58.35;100848.88;5049903;28;20381;-83
2022/07/30 11:17:18;;;;;;;1.58;0.52;;;;;;;31.27;53.85;100853.78;5051201;28;20037;-83
2022/07/30 11:20:03;;;;;;;0.98;0.40;;;;;;;30.48;54.45;100856.41;5050842;28;20032;-83
2022/07/30 11:22:35;;;;;;;0.73;0.47;;;;;;;30.39;54.48;100858.56;5051078;28;20021;-83
2022/07/30 11:25:00;;;;;;;;;;;;;;;31.00;52.96;100857.69;5051563;28;20070;-83
2022/07/30 11:27:36;;;;;;;1.08;0.40;;;;;;;31.31;51.76;100852.25;5051142;28;19912;-83
2022/07/30 11:30:15;;;;;;;1.23;0.35;;;;;;;30.63;50.92;100854.16;5050757;28;20052;-83
2022/07/30 11:32:42;;;;;;;1.60;0.40;;;;;;;28.55;58.56;100863.84;5050893;28;20108;-83